EZY32AP EGKK-EGPK
Flight info
| Callsign | EZY32AP |
|---|---|
| Flight time | 0h 57m |
| Altitude | 38000 |
| Route | LAM L10 BPK UN601 RIBEL DCT ASLIB |
| Aircraft | A20N/M-SDE2E3FGHIRWXY/LB1 |
Departure
| Time | 2026-05-06 16:20 |
|---|---|
| Airport | London Gatwick Airport (EGKK) |
Arrival
| Time | 2026-05-06 17:18 |
|---|---|
| Airport | Glasgow Prestwick Airport (EGPK) |
| Time | Latitude | Longitude | Altitude | Speed | Heading |
|---|---|---|---|---|---|
| 2026-05-06 15:43 | 51.15650 | -0.17787 | 203 ft | 0 kts | 167° |
| 2026-05-06 16:03 | 51.15659 | -0.17790 | 203 ft | 2 kts | 167° |
| 2026-05-06 16:03 | 51.15675 | -0.17795 | 214 ft | 2 kts | 170° |
| 2026-05-06 16:03 | 51.15691 | -0.17799 | 212 ft | 2 kts | 174° |
| 2026-05-06 16:04 | 51.15708 | -0.17800 | 211 ft | 2 kts | 189° |
| 2026-05-06 16:04 | 51.15722 | -0.17789 | 214 ft | 2 kts | 248° |
| 2026-05-06 16:04 | 51.15724 | -0.17776 | 213 ft | 0 kts | 257° |
| 2026-05-06 16:04 | 51.15724 | -0.17775 | 213 ft | 0 kts | 257° |
| 2026-05-06 16:10 | 51.15724 | -0.17776 | 203 ft | 1 kts | 257° |
| 2026-05-06 16:10 | 51.15720 | -0.17803 | 211 ft | 4 kts | 257° |
| 2026-05-06 16:11 | 51.15712 | -0.17869 | 203 ft | 8 kts | 258° |
| 2026-05-06 16:11 | 51.15697 | -0.17974 | 205 ft | 11 kts | 256° |
| 2026-05-06 16:11 | 51.15677 | -0.18114 | 203 ft | 15 kts | 258° |
| 2026-05-06 16:11 | 51.15655 | -0.18284 | 210 ft | 17 kts | 257° |
| 2026-05-06 16:12 | 51.15636 | -0.18415 | 203 ft | 18 kts | 256° |
| 2026-05-06 16:12 | 51.15628 | -0.18471 | 210 ft | 3 kts | 258° |
| 2026-05-06 16:12 | 51.15621 | -0.18526 | 204 ft | 7 kts | 258° |
| 2026-05-06 16:12 | 51.15608 | -0.18620 | 206 ft | 10 kts | 257° |
| 2026-05-06 16:13 | 51.15590 | -0.18748 | 214 ft | 9 kts | 257° |
| 2026-05-06 16:13 | 51.15554 | -0.18819 | 211 ft | 10 kts | 195° |
| 2026-05-06 16:13 | 51.15476 | -0.18801 | 212 ft | 13 kts | 168° |
| 2026-05-06 16:13 | 51.15377 | -0.18769 | 209 ft | 16 kts | 168° |
| 2026-05-06 16:14 | 51.15279 | -0.18734 | 210 ft | 15 kts | 167° |
| 2026-05-06 16:14 | 51.15169 | -0.18699 | 203 ft | 17 kts | 184° |
| 2026-05-06 16:14 | 51.15114 | -0.18845 | 213 ft | 17 kts | 258° |
| 2026-05-06 16:14 | 51.15090 | -0.19024 | 204 ft | 17 kts | 257° |
| 2026-05-06 16:15 | 51.15064 | -0.19214 | 204 ft | 19 kts | 257° |
| 2026-05-06 16:15 | 51.15036 | -0.19427 | 210 ft | 20 kts | 258° |
| 2026-05-06 16:15 | 51.15005 | -0.19645 | 204 ft | 20 kts | 259° |
| 2026-05-06 16:15 | 51.14972 | -0.19876 | 204 ft | 22 kts | 256° |
| 2026-05-06 16:16 | 51.14943 | -0.20096 | 208 ft | 19 kts | 259° |
| 2026-05-06 16:16 | 51.14911 | -0.20316 | 211 ft | 22 kts | 257° |
| 2026-05-06 16:16 | 51.14885 | -0.20512 | 203 ft | 18 kts | 258° |
| 2026-05-06 16:16 | 51.14856 | -0.20716 | 213 ft | 20 kts | 258° |
| 2026-05-06 16:17 | 51.14827 | -0.20941 | 215 ft | 20 kts | 258° |
| 2026-05-06 16:17 | 51.14791 | -0.21156 | 208 ft | 19 kts | 243° |
| 2026-05-06 16:17 | 51.14761 | -0.21343 | 204 ft | 17 kts | 255° |
| 2026-05-06 16:17 | 51.14691 | -0.21386 | 212 ft | 13 kts | 160° |
| 2026-05-06 16:18 | 51.14627 | -0.21330 | 205 ft | 9 kts | 167° |
| 2026-05-06 16:18 | 51.14613 | -0.21326 | 203 ft | 0 kts | 168° |
| 2026-05-06 16:19 | 51.14611 | -0.21325 | 205 ft | 2 kts | 168° |
| 2026-05-06 16:19 | 51.14574 | -0.21307 | 209 ft | 12 kts | 158° |
| 2026-05-06 16:19 | 51.14522 | -0.21209 | 203 ft | 4 kts | 98° |
| 2026-05-06 16:20 | 51.14530 | -0.21095 | 208 ft | 16 kts | 77° |
| 2026-05-06 16:20 | 51.14613 | -0.20513 | 216 ft | 97 kts | 78° |
| 2026-05-06 16:20 | 51.14809 | -0.19098 | 318 ft | 152 kts | 75° |
| 2026-05-06 16:20 | 51.15031 | -0.17438 | 1195 ft | 157 kts | 74° |
| 2026-05-06 16:21 | 51.15275 | -0.15692 | 2084 ft | 166 kts | 73° |
| 2026-05-06 16:21 | 51.15546 | -0.13809 | 2880 ft | 184 kts | 73° |
| 2026-05-06 16:21 | 51.15842 | -0.11718 | 3601 ft | 204 kts | 74° |
| 2026-05-06 16:21 | 51.16158 | -0.09428 | 4315 ft | 225 kts | 75° |
| 2026-05-06 16:22 | 51.16622 | -0.06945 | 5130 ft | 243 kts | 62° |
| 2026-05-06 16:22 | 51.17570 | -0.04594 | 5873 ft | 259 kts | 49° |
| 2026-05-06 16:22 | 51.18636 | -0.02435 | 6201 ft | 254 kts | 49° |
| 2026-05-06 16:22 | 51.19780 | -0.00116 | 6910 ft | 268 kts | 49° |
| 2026-05-06 16:23 | 51.20926 | 0.02227 | 7914 ft | 271 kts | 50° |
| 2026-05-06 16:23 | 51.22094 | 0.04640 | 8802 ft | 277 kts | 50° |
| 2026-05-06 16:23 | 51.23275 | 0.07098 | 9765 ft | 281 kts | 50° |
| 2026-05-06 16:23 | 51.24442 | 0.09692 | 10379 ft | 300 kts | 58° |
| 2026-05-06 16:24 | 51.25282 | 0.12884 | 10684 ft | 326 kts | 73° |
| 2026-05-06 16:24 | 51.25723 | 0.16504 | 11154 ft | 343 kts | 78° |
| 2026-05-06 16:24 | 51.26149 | 0.20265 | 11994 ft | 347 kts | 78° |
| 2026-05-06 16:24 | 51.26589 | 0.24091 | 12770 ft | 354 kts | 78° |
| 2026-05-06 16:25 | 51.27096 | 0.27948 | 13572 ft | 358 kts | 70° |
| 2026-05-06 16:25 | 51.28214 | 0.31368 | 14286 ft | 359 kts | 50° |
| 2026-05-06 16:25 | 51.30051 | 0.34030 | 14977 ft | 359 kts | 29° |
| 2026-05-06 16:25 | 51.32361 | 0.35510 | 15687 ft | 359 kts | 9° |
| 2026-05-06 16:26 | 51.34839 | 0.35630 | 16376 ft | 359 kts | 348° |
| 2026-05-06 16:26 | 51.37208 | 0.34421 | 17076 ft | 360 kts | 333° |
| 2026-05-06 16:26 | 51.39427 | 0.32542 | 17760 ft | 363 kts | 329° |
| 2026-05-06 16:26 | 51.41675 | 0.30604 | 18386 ft | 369 kts | 331° |
| 2026-05-06 16:27 | 51.43989 | 0.28801 | 19057 ft | 372 kts | 333° |
| 2026-05-06 16:27 | 51.46338 | 0.27131 | 19659 ft | 376 kts | 335° |
| 2026-05-06 16:27 | 51.48762 | 0.25502 | 20260 ft | 380 kts | 336° |
| 2026-05-06 16:27 | 51.51221 | 0.23894 | 20855 ft | 384 kts | 336° |
| 2026-05-06 16:28 | 51.53709 | 0.22279 | 21459 ft | 387 kts | 336° |
| 2026-05-06 16:28 | 51.56219 | 0.20648 | 22048 ft | 391 kts | 336° |
| 2026-05-06 16:28 | 51.58747 | 0.19002 | 22645 ft | 394 kts | 335° |
| 2026-05-06 16:28 | 51.61301 | 0.17323 | 23210 ft | 398 kts | 334° |
| 2026-05-06 16:29 | 51.63699 | 0.15102 | 23724 ft | 399 kts | 321° |
| 2026-05-06 16:29 | 51.65722 | 0.12070 | 24228 ft | 398 kts | 308° |
| 2026-05-06 16:29 | 51.67316 | 0.08445 | 24741 ft | 398 kts | 301° |
| 2026-05-06 16:29 | 51.68809 | 0.04706 | 25203 ft | 401 kts | 301° |
| 2026-05-06 16:30 | 51.70226 | 0.01179 | 25630 ft | 404 kts | 301° |
| 2026-05-06 16:30 | 51.71259 | -0.01394 | 25980 ft | 406 kts | 301° |
| 2026-05-06 16:30 | 51.73334 | -0.06462 | 26526 ft | 412 kts | 305° |
| 2026-05-06 16:30 | 51.75227 | -0.09957 | 26978 ft | 416 kts | 314° |
| 2026-05-06 16:31 | 51.77392 | -0.12866 | 27390 ft | 421 kts | 323° |
| 2026-05-06 16:31 | 51.79760 | -0.15224 | 27788 ft | 424 kts | 328° |
| 2026-05-06 16:31 | 51.82319 | -0.17639 | 28152 ft | 427 kts | 327° |
| 2026-05-06 16:31 | 51.84881 | -0.20081 | 28547 ft | 429 kts | 327° |
| 2026-05-06 16:32 | 51.87455 | -0.22543 | 28926 ft | 432 kts | 327° |
| 2026-05-06 16:32 | 51.90053 | -0.25031 | 29300 ft | 435 kts | 327° |
| 2026-05-06 16:32 | 51.92627 | -0.27498 | 29645 ft | 437 kts | 327° |
| 2026-05-06 16:32 | 51.95249 | -0.30012 | 30003 ft | 440 kts | 327° |
| 2026-05-06 16:33 | 51.97888 | -0.32545 | 30319 ft | 442 kts | 327° |
| 2026-05-06 16:33 | 52.00541 | -0.35095 | 30652 ft | 443 kts | 327° |
| 2026-05-06 16:33 | 52.03201 | -0.37655 | 30981 ft | 445 kts | 327° |
| 2026-05-06 16:34 | 52.08530 | -0.42792 | 31776 ft | 444 kts | 327° |
| 2026-05-06 16:34 | 52.11181 | -0.45351 | 31972 ft | 443 kts | 327° |
| 2026-05-06 16:34 | 52.13827 | -0.47909 | 32001 ft | 442 kts | 327° |
| 2026-05-06 16:35 | 52.19113 | -0.53030 | 32001 ft | 442 kts | 327° |
| 2026-05-06 16:35 | 52.24353 | -0.58122 | 32002 ft | 442 kts | 327° |
| 2026-05-06 16:36 | 52.29624 | -0.63267 | 32010 ft | 442 kts | 326° |
| 2026-05-06 16:36 | 52.34908 | -0.68439 | 32006 ft | 442 kts | 326° |
| 2026-05-06 16:37 | 52.40184 | -0.73613 | 32019 ft | 442 kts | 326° |
| 2026-05-06 16:37 | 52.45425 | -0.78761 | 32020 ft | 442 kts | 326° |
| 2026-05-06 16:38 | 52.50700 | -0.83958 | 32025 ft | 442 kts | 326° |
| 2026-05-06 16:38 | 52.55980 | -0.89174 | 32026 ft | 442 kts | 326° |
| 2026-05-06 16:39 | 52.61244 | -0.94391 | 32019 ft | 442 kts | 326° |
| 2026-05-06 16:39 | 52.66516 | -0.99634 | 32022 ft | 442 kts | 326° |
| 2026-05-06 16:40 | 52.71688 | -1.04791 | 32017 ft | 441 kts | 326° |
| 2026-05-06 16:40 | 52.76887 | -1.09992 | 32068 ft | 441 kts | 326° |
| 2026-05-06 16:41 | 52.82130 | -1.15250 | 32054 ft | 441 kts | 326° |
| 2026-05-06 16:41 | 52.87366 | -1.20518 | 32055 ft | 441 kts | 325° |
| 2026-05-06 16:42 | 52.92577 | -1.25774 | 32054 ft | 441 kts | 325° |
| 2026-05-06 16:42 | 52.97812 | -1.31070 | 32052 ft | 441 kts | 325° |
| 2026-05-06 16:43 | 53.03041 | -1.36372 | 32053 ft | 440 kts | 325° |
| 2026-05-06 16:43 | 53.08268 | -1.41687 | 32050 ft | 440 kts | 325° |
| 2026-05-06 16:44 | 53.13460 | -1.46982 | 32043 ft | 440 kts | 325° |
| 2026-05-06 16:44 | 53.18678 | -1.52319 | 32044 ft | 440 kts | 325° |
| 2026-05-06 16:45 | 53.23882 | -1.57657 | 32043 ft | 437 kts | 325° |
| 2026-05-06 16:45 | 53.29024 | -1.62949 | 32047 ft | 437 kts | 326° |
| 2026-05-06 16:46 | 53.34196 | -1.68290 | 32037 ft | 437 kts | 325° |
| 2026-05-06 16:46 | 53.39364 | -1.73645 | 32039 ft | 437 kts | 325° |
| 2026-05-06 16:47 | 53.44539 | -1.79021 | 32038 ft | 437 kts | 325° |
| 2026-05-06 16:47 | 53.49699 | -1.84394 | 32040 ft | 437 kts | 325° |
| 2026-05-06 16:48 | 53.54828 | -1.89748 | 32037 ft | 437 kts | 325° |
| 2026-05-06 16:48 | 53.59987 | -1.95147 | 32033 ft | 437 kts | 325° |
| 2026-05-06 16:49 | 53.65144 | -2.00566 | 32033 ft | 437 kts | 325° |
| 2026-05-06 16:49 | 53.70298 | -2.06001 | 32037 ft | 437 kts | 325° |
| 2026-05-06 16:50 | 53.75528 | -2.11066 | 32026 ft | 436 kts | 334° |
| 2026-05-06 16:50 | 53.80217 | -2.14264 | 32026 ft | 438 kts | 336° |
| 2026-05-06 16:51 | 53.86646 | -2.18671 | 32028 ft | 437 kts | 335° |
| 2026-05-06 16:51 | 53.92286 | -2.22546 | 32029 ft | 437 kts | 335° |
| 2026-05-06 16:52 | 53.97926 | -2.26425 | 32045 ft | 437 kts | 336° |
| 2026-05-06 16:52 | 54.03405 | -2.30631 | 32033 ft | 434 kts | 329° |
| 2026-05-06 16:53 | 54.08700 | -2.35613 | 32027 ft | 434 kts | 329° |
| 2026-05-06 16:53 | 54.13999 | -2.40564 | 32029 ft | 434 kts | 329° |
| 2026-05-06 16:54 | 54.19292 | -2.45537 | 32030 ft | 434 kts | 329° |
| 2026-05-06 16:54 | 54.24572 | -2.50518 | 32034 ft | 432 kts | 329° |
| 2026-05-06 16:55 | 54.29810 | -2.55474 | 32025 ft | 433 kts | 329° |
| 2026-05-06 16:55 | 54.35002 | -2.60401 | 32027 ft | 433 kts | 329° |
| 2026-05-06 16:56 | 54.40266 | -2.65412 | 32026 ft | 433 kts | 329° |
| 2026-05-06 16:56 | 54.45514 | -2.70424 | 32026 ft | 429 kts | 329° |
| 2026-05-06 16:57 | 54.50714 | -2.75402 | 31809 ft | 425 kts | 329° |
| 2026-05-06 16:57 | 54.53298 | -2.77881 | 31196 ft | 425 kts | 329° |
| 2026-05-06 16:57 | 54.55823 | -2.80307 | 30507 ft | 425 kts | 329° |
| 2026-05-06 16:57 | 54.58392 | -2.82779 | 29956 ft | 419 kts | 329° |
| 2026-05-06 16:58 | 54.60890 | -2.85185 | 29317 ft | 415 kts | 329° |
| 2026-05-06 16:58 | 54.63400 | -2.87607 | 28648 ft | 411 kts | 329° |
| 2026-05-06 16:58 | 54.65883 | -2.90006 | 28013 ft | 407 kts | 329° |
| 2026-05-06 16:58 | 54.68314 | -2.92358 | 27389 ft | 404 kts | 329° |
| 2026-05-06 16:59 | 54.70782 | -2.94749 | 26779 ft | 400 kts | 329° |
| 2026-05-06 16:59 | 54.73201 | -2.97098 | 26246 ft | 396 kts | 329° |
| 2026-05-06 16:59 | 54.75570 | -2.99399 | 25669 ft | 392 kts | 329° |
| 2026-05-06 16:59 | 54.77954 | -3.01720 | 25068 ft | 390 kts | 328° |
| 2026-05-06 17:00 | 54.80290 | -3.04016 | 24471 ft | 387 kts | 328° |
| 2026-05-06 17:00 | 54.82623 | -3.06304 | 23953 ft | 384 kts | 328° |
| 2026-05-06 17:00 | 54.84948 | -3.08576 | 23346 ft | 381 kts | 328° |
| 2026-05-06 17:00 | 54.87245 | -3.10814 | 22728 ft | 378 kts | 328° |
| 2026-05-06 17:01 | 54.89498 | -3.13006 | 22110 ft | 375 kts | 328° |
| 2026-05-06 17:01 | 54.91766 | -3.15211 | 21512 ft | 372 kts | 328° |
| 2026-05-06 17:01 | 54.94019 | -3.17417 | 20913 ft | 369 kts | 328° |
| 2026-05-06 17:01 | 54.96227 | -3.19593 | 20615 ft | 359 kts | 328° |
| 2026-05-06 17:02 | 54.98366 | -3.21703 | 20267 ft | 351 kts | 328° |
| 2026-05-06 17:02 | 55.00409 | -3.23979 | 19748 ft | 346 kts | 317° |
| 2026-05-06 17:02 | 55.02014 | -3.27037 | 19219 ft | 341 kts | 302° |
| 2026-05-06 17:02 | 55.03067 | -3.30709 | 18687 ft | 338 kts | 288° |
| 2026-05-06 17:03 | 55.03812 | -3.34521 | 18197 ft | 335 kts | 288° |
| 2026-05-06 17:03 | 55.04566 | -3.38337 | 17666 ft | 333 kts | 288° |
| 2026-05-06 17:03 | 55.05319 | -3.42139 | 17131 ft | 330 kts | 288° |
| 2026-05-06 17:03 | 55.06068 | -3.45924 | 16608 ft | 328 kts | 288° |
| 2026-05-06 17:04 | 55.06809 | -3.49677 | 16108 ft | 326 kts | 288° |
| 2026-05-06 17:04 | 55.07544 | -3.53405 | 15613 ft | 324 kts | 288° |
| 2026-05-06 17:04 | 55.08472 | -3.56980 | 15096 ft | 324 kts | 304° |
| 2026-05-06 17:04 | 55.10094 | -3.59666 | 14740 ft | 322 kts | 327° |
| 2026-05-06 17:05 | 55.11443 | -3.60689 | 14652 ft | 317 kts | 342° |
| 2026-05-06 17:05 | 55.14280 | -3.60671 | 14499 ft | 308 kts | 14° |
| 2026-05-06 17:05 | 55.16137 | -3.58928 | 14280 ft | 305 kts | 39° |
| 2026-05-06 17:05 | 55.17701 | -3.56454 | 13918 ft | 301 kts | 31° |
| 2026-05-06 17:06 | 55.18951 | -3.55368 | 13619 ft | 296 kts | 14° |
| 2026-05-06 17:06 | 55.21584 | -3.55266 | 13064 ft | 285 kts | 340° |
| 2026-05-06 17:06 | 55.23287 | -3.56902 | 12589 ft | 279 kts | 314° |
| 2026-05-06 17:06 | 55.24103 | -3.58592 | 12465 ft | 270 kts | 304° |
| 2026-05-06 17:07 | 55.25190 | -3.61193 | 12361 ft | 258 kts | 304° |
| 2026-05-06 17:07 | 55.26227 | -3.63683 | 12252 ft | 247 kts | 303° |
| 2026-05-06 17:07 | 55.26933 | -3.66334 | 11930 ft | 239 kts | 278° |
| 2026-05-06 17:07 | 55.26956 | -3.69243 | 11464 ft | 239 kts | 267° |
| 2026-05-06 17:08 | 55.26885 | -3.72147 | 11056 ft | 238 kts | 267° |
| 2026-05-06 17:08 | 55.26816 | -3.75047 | 10646 ft | 238 kts | 267° |
| 2026-05-06 17:08 | 55.26751 | -3.77943 | 10279 ft | 237 kts | 267° |
| 2026-05-06 17:08 | 55.26938 | -3.80775 | 9894 ft | 237 kts | 290° |
| 2026-05-06 17:09 | 55.27632 | -3.83397 | 9485 ft | 237 kts | 294° |
| 2026-05-06 17:09 | 55.28344 | -3.85951 | 9119 ft | 235 kts | 294° |
| 2026-05-06 17:09 | 55.29058 | -3.88449 | 8990 ft | 222 kts | 294° |
| 2026-05-06 17:09 | 55.29744 | -3.90842 | 8986 ft | 221 kts | 294° |
| 2026-05-06 17:10 | 55.30438 | -3.93248 | 8934 ft | 220 kts | 294° |
| 2026-05-06 17:10 | 55.31134 | -3.95631 | 8652 ft | 220 kts | 294° |
| 2026-05-06 17:10 | 55.31825 | -3.98037 | 8296 ft | 221 kts | 294° |
| 2026-05-06 17:10 | 55.32499 | -4.00481 | 7913 ft | 222 kts | 294° |
| 2026-05-06 17:11 | 55.33169 | -4.02843 | 7626 ft | 219 kts | 294° |
| 2026-05-06 17:11 | 55.33838 | -4.05232 | 7272 ft | 219 kts | 294° |
| 2026-05-06 17:11 | 55.34493 | -4.07649 | 6939 ft | 219 kts | 294° |
| 2026-05-06 17:11 | 55.35136 | -4.10025 | 6619 ft | 218 kts | 294° |
| 2026-05-06 17:12 | 55.35788 | -4.12417 | 6331 ft | 216 kts | 294° |
| 2026-05-06 17:12 | 55.36439 | -4.14799 | 6057 ft | 214 kts | 294° |
| 2026-05-06 17:12 | 55.37078 | -4.17161 | 5995 ft | 216 kts | 294° |
| 2026-05-06 17:12 | 55.37734 | -4.19559 | 5992 ft | 217 kts | 294° |
| 2026-05-06 17:13 | 55.38350 | -4.21972 | 5993 ft | 216 kts | 288° |
| 2026-05-06 17:13 | 55.38902 | -4.24440 | 5995 ft | 217 kts | 292° |
| 2026-05-06 17:13 | 55.39599 | -4.26810 | 5991 ft | 218 kts | 297° |
| 2026-05-06 17:13 | 55.40358 | -4.29006 | 5926 ft | 210 kts | 300° |
| 2026-05-06 17:14 | 55.41103 | -4.31141 | 5809 ft | 200 kts | 298° |
| 2026-05-06 17:14 | 55.41805 | -4.33157 | 5653 ft | 190 kts | 298° |
| 2026-05-06 17:14 | 55.42489 | -4.35126 | 5298 ft | 190 kts | 299° |
| 2026-05-06 17:14 | 55.43161 | -4.37060 | 5004 ft | 189 kts | 299° |
| 2026-05-06 17:15 | 55.43849 | -4.39039 | 4501 ft | 193 kts | 299° |
| 2026-05-06 17:15 | 55.44547 | -4.41045 | 4186 ft | 190 kts | 299° |
| 2026-05-06 17:15 | 55.45225 | -4.42992 | 3819 ft | 180 kts | 299° |
| 2026-05-06 17:15 | 55.45879 | -4.44878 | 3014 ft | 184 kts | 298° |
| 2026-05-06 17:16 | 55.46555 | -4.46823 | 2243 ft | 185 kts | 298° |
| 2026-05-06 17:16 | 55.47211 | -4.48717 | 1917 ft | 182 kts | 298° |
| 2026-05-06 17:16 | 55.47875 | -4.50641 | 1485 ft | 186 kts | 298° |
| 2026-05-06 17:16 | 55.48542 | -4.52558 | 969 ft | 179 kts | 300° |
| 2026-05-06 17:17 | 55.49160 | -4.54320 | 567 ft | 162 kts | 300° |
| 2026-05-06 17:17 | 55.49740 | -4.56015 | 359 ft | 160 kts | 300° |
| 2026-05-06 17:17 | 55.50321 | -4.57679 | 119 ft | 158 kts | 300° |
| 2026-05-06 17:17 | 55.50811 | -4.59093 | 59 ft | 84 kts | 301° |
| 2026-05-06 17:18 | 55.50992 | -4.59614 | 50 ft | 44 kts | 299° |
| 2026-05-06 17:18 | 55.51148 | -4.60062 | 48 ft | 32 kts | 303° |
| 2026-05-06 17:18 | 55.51241 | -4.60331 | 47 ft | 25 kts | 304° |
| 2026-05-06 17:18 | 55.51325 | -4.60589 | 47 ft | 24 kts | 288° |
| 2026-05-06 17:19 | 55.51335 | -4.60835 | 44 ft | 16 kts | 262° |
| 2026-05-06 17:19 | 55.51328 | -4.60924 | 40 ft | 0 kts | 261° |
| 2026-05-06 17:20 | 55.51325 | -4.60948 | 43 ft | 4 kts | 256° |
| 2026-05-06 17:21 | 55.51300 | -4.60997 | 44 ft | 6 kts | 207° |
| 2026-05-06 17:21 | 55.51267 | -4.60982 | 43 ft | 5 kts | 152° |
| 2026-05-06 17:21 | 55.51242 | -4.60931 | 47 ft | 7 kts | 119° |